PASV/SVW METAR and TAF weather

Enter ICAO airport designator
Station Type Date Time Source
PASV METAR 2019/10/18 10:55 UTC NOAA

PASV 181055Z AUTO 04001KT 10SM BKN120 M06/M08 A2911 RMK AO2 SLP882 T10581082


Station Type Date Time Source
PASV Decoded METAR 2019/10/18 10:55 UTC NOAA

Sparrevohn Airways Facilities Sector, AK, United States (PASV) 61-06N 155-34W
Oct 18, 2019 - 06:55 AM EDT / 2019.10.18 1055 UTC
Wind: from the NE (040 degrees) at 1 MPH (1 KT):0
Visibility: 10 mile(s):0
Sky conditions: mostly cloudy
Temperature: 21.6 F (-5.8 C)
Dew Point: 17.2 F (-8.2 C)
Relative Humidity: 83%
Pressure (altimeter): 29.11 in. Hg (985 hPa)
ob: PASV 181055Z AUTO 04001KT 10SM BKN120 M06/M08 A2911 RMK AO2 SLP882 T10581082
cycle: 11

Station Type Date Time Source
PASV TAF 2012/01/12 14:57 UTC NOAA

TAF
AMD PASV 1214/1320 33010G15KT 4800 -SN BLSN SCT003 SCT110 QNH2984INS
BECMG 1221/1222 VRB06KT 9999 NSW FEW010 SCT110 QNH3000INS LIMITED METWATCH TM25/1300Z TM37/1315Z
AMD 121453

Example: see airport list